<?xml version="1.0" encoding="UTF-8" standalone="no" ?>
<gpx xmlns="http://www.topografix.com/GPX/1/1" xmlns:xsi="http://www.w3.org/2001/XMLSchema-instance" xsi:schemaLocation="http://www.topografix.com/GPX/1/1 http://www.topografix.com/GPX/1/1/gpx.xsd" version="1.1" creator="VisuGPX - https://www.visugpx.com">
  <metadata>
    <name>rando st thomas de conac 9.42 km</name>
    <desc><![CDATA[superbe rando en Charente  très beau paysage]]></desc>
  </metadata>
  <trk>
    <name><![CDATA[rando st thomas de conac 10 km]]></name>
    <trkseg>
      <trkpt lat="45.38884" lon="-0.68738">
        <ele>71</ele>
        <time>2016-09-03T19:26:58Z</time>
      </trkpt>
      <trkpt lat="45.38885" lon="-0.68738">
        <ele>71</ele>
        <time>2016-09-03T19:28:58Z</time>
      </trkpt>
      <trkpt lat="45.38885" lon="-0.68733">
        <ele>71</ele>
        <time>2016-09-03T19:30:58Z</time>
      </trkpt>
      <trkpt lat="45.38878" lon="-0.68724">
        <ele>71</ele>
        <time>2016-09-03T19:32:58Z</time>
      </trkpt>
      <trkpt lat="45.38875" lon="-0.68683">
        <ele>71</ele>
        <time>2016-09-03T19:34:58Z</time>
      </trkpt>
      <trkpt lat="45.38871" lon="-0.68663">
        <ele>72</ele>
        <time>2016-09-03T19:36:58Z</time>
      </trkpt>
      <trkpt lat="45.38868" lon="-0.6865">
        <ele>72</ele>
        <time>2016-09-03T19:38:58Z</time>
      </trkpt>
      <trkpt lat="45.38859" lon="-0.68646">
        <ele>72</ele>
        <time>2016-09-03T19:40:58Z</time>
      </trkpt>
      <trkpt lat="45.38846" lon="-0.68649">
        <ele>73</ele>
        <time>2016-09-03T19:42:58Z</time>
      </trkpt>
      <trkpt lat="45.38843" lon="-0.68649">
        <ele>73</ele>
        <time>2016-09-03T19:44:58Z</time>
      </trkpt>
      <trkpt lat="45.3884" lon="-0.68646">
        <ele>73</ele>
        <time>2016-09-03T19:46:58Z</time>
      </trkpt>
      <trkpt lat="45.38836" lon="-0.68617">
        <ele>73</ele>
        <time>2016-09-03T19:48:58Z</time>
      </trkpt>
      <trkpt lat="45.38838" lon="-0.68553">
        <ele>74</ele>
        <time>2016-09-03T19:50:58Z</time>
      </trkpt>
      <trkpt lat="45.38838" lon="-0.6853">
        <ele>75</ele>
        <time>2016-09-03T19:52:58Z</time>
      </trkpt>
      <trkpt lat="45.38839" lon="-0.68461">
        <ele>78</ele>
        <time>2016-09-03T19:54:58Z</time>
      </trkpt>
      <trkpt lat="45.38837" lon="-0.68457">
        <ele>78</ele>
        <time>2016-09-03T19:56:58Z</time>
      </trkpt>
      <trkpt lat="45.38818" lon="-0.68457">
        <ele>78</ele>
        <time>2016-09-03T19:58:58Z</time>
      </trkpt>
      <trkpt lat="45.38796" lon="-0.68462">
        <ele>77</ele>
        <time>2016-09-03T20:00:58Z</time>
      </trkpt>
      <trkpt lat="45.38771" lon="-0.68468">
        <ele>77</ele>
        <time>2016-09-03T20:02:58Z</time>
      </trkpt>
      <trkpt lat="45.38743" lon="-0.68474">
        <ele>76</ele>
        <time>2016-09-03T20:04:58Z</time>
      </trkpt>
      <trkpt lat="45.38726" lon="-0.68479">
        <ele>75</ele>
        <time>2016-09-03T20:06:58Z</time>
      </trkpt>
      <trkpt lat="45.38706" lon="-0.68482">
        <ele>74</ele>
        <time>2016-09-03T20:08:58Z</time>
      </trkpt>
      <trkpt lat="45.38685" lon="-0.68478">
        <ele>73</ele>
        <time>2016-09-03T20:10:58Z</time>
      </trkpt>
      <trkpt lat="45.38674" lon="-0.6848">
        <ele>73</ele>
        <time>2016-09-03T20:12:58Z</time>
      </trkpt>
      <trkpt lat="45.38683" lon="-0.68514">
        <ele>72</ele>
        <time>2016-09-03T20:14:58Z</time>
      </trkpt>
      <trkpt lat="45.38697" lon="-0.68551">
        <ele>71</ele>
        <time>2016-09-03T20:16:58Z</time>
      </trkpt>
      <trkpt lat="45.38695" lon="-0.68557">
        <ele>71</ele>
        <time>2016-09-03T20:18:58Z</time>
      </trkpt>
      <trkpt lat="45.38689" lon="-0.68564">
        <ele>71</ele>
        <time>2016-09-03T20:20:58Z</time>
      </trkpt>
      <trkpt lat="45.38683" lon="-0.68569">
        <ele>70</ele>
        <time>2016-09-03T20:22:58Z</time>
      </trkpt>
      <trkpt lat="45.38672" lon="-0.68576">
        <ele>69</ele>
        <time>2016-09-03T20:24:58Z</time>
      </trkpt>
      <trkpt lat="45.38666" lon="-0.68579">
        <ele>69</ele>
        <time>2016-09-03T20:26:58Z</time>
      </trkpt>
      <trkpt lat="45.38653" lon="-0.68588">
        <ele>67</ele>
        <time>2016-09-03T20:28:58Z</time>
      </trkpt>
      <trkpt lat="45.38645" lon="-0.68599">
        <ele>66</ele>
        <time>2016-09-03T20:30:58Z</time>
      </trkpt>
      <trkpt lat="45.3863" lon="-0.6861">
        <ele>64</ele>
        <time>2016-09-03T20:32:58Z</time>
      </trkpt>
      <trkpt lat="45.38614" lon="-0.68619">
        <ele>61</ele>
        <time>2016-09-03T20:34:58Z</time>
      </trkpt>
      <trkpt lat="45.386" lon="-0.68627">
        <ele>59</ele>
        <time>2016-09-03T20:36:58Z</time>
      </trkpt>
      <trkpt lat="45.38586" lon="-0.68635">
        <ele>57</ele>
        <time>2016-09-03T20:38:58Z</time>
      </trkpt>
      <trkpt lat="45.3857" lon="-0.68642">
        <ele>54</ele>
        <time>2016-09-03T20:40:58Z</time>
      </trkpt>
      <trkpt lat="45.38533" lon="-0.68655">
        <ele>49</ele>
        <time>2016-09-03T20:42:58Z</time>
      </trkpt>
      <trkpt lat="45.38529" lon="-0.68657">
        <ele>48</ele>
        <time>2016-09-03T20:44:58Z</time>
      </trkpt>
      <trkpt lat="45.38508" lon="-0.68672">
        <ele>45</ele>
        <time>2016-09-03T20:46:58Z</time>
      </trkpt>
      <trkpt lat="45.38482" lon="-0.68684">
        <ele>41</ele>
        <time>2016-09-03T20:48:58Z</time>
      </trkpt>
      <trkpt lat="45.38478" lon="-0.68685">
        <ele>40</ele>
        <time>2016-09-03T20:50:58Z</time>
      </trkpt>
      <trkpt lat="45.3847" lon="-0.68689">
        <ele>39</ele>
        <time>2016-09-03T20:52:58Z</time>
      </trkpt>
      <trkpt lat="45.38463" lon="-0.68693">
        <ele>38</ele>
        <time>2016-09-03T20:54:58Z</time>
      </trkpt>
      <trkpt lat="45.38446" lon="-0.68699">
        <ele>36</ele>
        <time>2016-09-03T20:56:58Z</time>
      </trkpt>
      <trkpt lat="45.38426" lon="-0.687">
        <ele>34</ele>
        <time>2016-09-03T20:58:58Z</time>
      </trkpt>
      <trkpt lat="45.38419" lon="-0.68698">
        <ele>33</ele>
        <time>2016-09-03T21:00:58Z</time>
      </trkpt>
      <trkpt lat="45.38403" lon="-0.68684">
        <ele>33</ele>
        <time>2016-09-03T21:02:58Z</time>
      </trkpt>
      <trkpt lat="45.38386" lon="-0.68653">
        <ele>33</ele>
        <time>2016-09-03T21:04:58Z</time>
      </trkpt>
      <trkpt lat="45.38371" lon="-0.6865">
        <ele>32</ele>
        <time>2016-09-03T21:06:58Z</time>
      </trkpt>
      <trkpt lat="45.38357" lon="-0.68659">
        <ele>31</ele>
        <time>2016-09-03T21:08:58Z</time>
      </trkpt>
      <trkpt lat="45.38344" lon="-0.68668">
        <ele>30</ele>
        <time>2016-09-03T21:10:58Z</time>
      </trkpt>
      <trkpt lat="45.38327" lon="-0.68671">
        <ele>31</ele>
        <time>2016-09-03T21:12:58Z</time>
      </trkpt>
      <trkpt lat="45.38314" lon="-0.68668">
        <ele>31</ele>
        <time>2016-09-03T21:14:58Z</time>
      </trkpt>
      <trkpt lat="45.38283" lon="-0.68657">
        <ele>32</ele>
        <time>2016-09-03T21:16:58Z</time>
      </trkpt>
      <trkpt lat="45.38253" lon="-0.68655">
        <ele>32</ele>
        <time>2016-09-03T21:18:58Z</time>
      </trkpt>
      <trkpt lat="45.38236" lon="-0.68656">
        <ele>32</ele>
        <time>2016-09-03T21:20:58Z</time>
      </trkpt>
      <trkpt lat="45.38222" lon="-0.68664">
        <ele>33</ele>
        <time>2016-09-03T21:22:58Z</time>
      </trkpt>
      <trkpt lat="45.38205" lon="-0.6867">
        <ele>33</ele>
        <time>2016-09-03T21:24:58Z</time>
      </trkpt>
      <trkpt lat="45.38201" lon="-0.68671">
        <ele>33</ele>
        <time>2016-09-03T21:26:58Z</time>
      </trkpt>
      <trkpt lat="45.38199" lon="-0.68672">
        <ele>34</ele>
        <time>2016-09-03T21:28:58Z</time>
      </trkpt>
      <trkpt lat="45.38181" lon="-0.68671">
        <ele>34</ele>
        <time>2016-09-03T21:30:58Z</time>
      </trkpt>
      <trkpt lat="45.38169" lon="-0.68665">
        <ele>33</ele>
        <time>2016-09-03T21:32:58Z</time>
      </trkpt>
      <trkpt lat="45.38157" lon="-0.68656">
        <ele>32</ele>
        <time>2016-09-03T21:34:58Z</time>
      </trkpt>
      <trkpt lat="45.38142" lon="-0.68644">
        <ele>31</ele>
        <time>2016-09-03T21:36:58Z</time>
      </trkpt>
      <trkpt lat="45.38132" lon="-0.68637">
        <ele>30</ele>
        <time>2016-09-03T21:38:58Z</time>
      </trkpt>
      <trkpt lat="45.38099" lon="-0.68623">
        <ele>29</ele>
        <time>2016-09-03T21:40:58Z</time>
      </trkpt>
      <trkpt lat="45.38081" lon="-0.68614">
        <ele>28</ele>
        <time>2016-09-03T21:42:58Z</time>
      </trkpt>
      <trkpt lat="45.38064" lon="-0.68609">
        <ele>27</ele>
        <time>2016-09-03T21:44:58Z</time>
      </trkpt>
      <trkpt lat="45.38046" lon="-0.68606">
        <ele>26</ele>
        <time>2016-09-03T21:46:58Z</time>
      </trkpt>
      <trkpt lat="45.3803" lon="-0.68607">
        <ele>26</ele>
        <time>2016-09-03T21:48:58Z</time>
      </trkpt>
      <trkpt lat="45.38016" lon="-0.68605">
        <ele>26</ele>
        <time>2016-09-03T21:50:58Z</time>
      </trkpt>
      <trkpt lat="45.37983" lon="-0.68606">
        <ele>25</ele>
        <time>2016-09-03T21:52:58Z</time>
      </trkpt>
      <trkpt lat="45.3797" lon="-0.68605">
        <ele>25</ele>
        <time>2016-09-03T21:54:58Z</time>
      </trkpt>
      <trkpt lat="45.37941" lon="-0.68604">
        <ele>24</ele>
        <time>2016-09-03T21:56:58Z</time>
      </trkpt>
      <trkpt lat="45.37925" lon="-0.68602">
        <ele>24</ele>
        <time>2016-09-03T21:58:58Z</time>
      </trkpt>
      <trkpt lat="45.37899" lon="-0.68597">
        <ele>22</ele>
        <time>2016-09-03T22:00:58Z</time>
      </trkpt>
      <trkpt lat="45.37885" lon="-0.68589">
        <ele>21</ele>
        <time>2016-09-03T22:02:58Z</time>
      </trkpt>
      <trkpt lat="45.37872" lon="-0.68584">
        <ele>20</ele>
        <time>2016-09-03T22:04:58Z</time>
      </trkpt>
      <trkpt lat="45.3786" lon="-0.6858">
        <ele>20</ele>
        <time>2016-09-03T22:06:58Z</time>
      </trkpt>
      <trkpt lat="45.37847" lon="-0.68578">
        <ele>19</ele>
        <time>2016-09-03T22:08:58Z</time>
      </trkpt>
      <trkpt lat="45.37833" lon="-0.68579">
        <ele>19</ele>
        <time>2016-09-03T22:10:58Z</time>
      </trkpt>
      <trkpt lat="45.37822" lon="-0.68586">
        <ele>19</ele>
        <time>2016-09-03T22:12:58Z</time>
      </trkpt>
      <trkpt lat="45.37808" lon="-0.68598">
        <ele>19</ele>
        <time>2016-09-03T22:14:58Z</time>
      </trkpt>
      <trkpt lat="45.37794" lon="-0.68614">
        <ele>19</ele>
        <time>2016-09-03T22:16:58Z</time>
      </trkpt>
      <trkpt lat="45.3778" lon="-0.6864">
        <ele>18</ele>
        <time>2016-09-03T22:18:58Z</time>
      </trkpt>
      <trkpt lat="45.37772" lon="-0.68666">
        <ele>17</ele>
        <time>2016-09-03T22:20:58Z</time>
      </trkpt>
      <trkpt lat="45.37764" lon="-0.68682">
        <ele>16</ele>
        <time>2016-09-03T22:22:58Z</time>
      </trkpt>
      <trkpt lat="45.37759" lon="-0.687">
        <ele>16</ele>
        <time>2016-09-03T22:24:58Z</time>
      </trkpt>
      <trkpt lat="45.37751" lon="-0.68721">
        <ele>15</ele>
        <time>2016-09-03T22:26:58Z</time>
      </trkpt>
      <trkpt lat="45.37744" lon="-0.68743">
        <ele>15</ele>
        <time>2016-09-03T22:28:58Z</time>
      </trkpt>
      <trkpt lat="45.37741" lon="-0.6876">
        <ele>15</ele>
        <time>2016-09-03T22:30:58Z</time>
      </trkpt>
      <trkpt lat="45.3773" lon="-0.68796">
        <ele>16</ele>
        <time>2016-09-03T22:32:58Z</time>
      </trkpt>
      <trkpt lat="45.37726" lon="-0.68812">
        <ele>16</ele>
        <time>2016-09-03T22:34:58Z</time>
      </trkpt>
      <trkpt lat="45.37717" lon="-0.68833">
        <ele>15</ele>
        <time>2016-09-03T22:36:58Z</time>
      </trkpt>
      <trkpt lat="45.3771" lon="-0.68853">
        <ele>15</ele>
        <time>2016-09-03T22:38:58Z</time>
      </trkpt>
      <trkpt lat="45.37708" lon="-0.68869">
        <ele>15</ele>
        <time>2016-09-03T22:40:58Z</time>
      </trkpt>
      <trkpt lat="45.37702" lon="-0.68889">
        <ele>14</ele>
        <time>2016-09-03T22:42:58Z</time>
      </trkpt>
      <trkpt lat="45.37697" lon="-0.68903">
        <ele>13</ele>
        <time>2016-09-03T22:44:58Z</time>
      </trkpt>
      <trkpt lat="45.37695" lon="-0.68933">
        <ele>13</ele>
        <time>2016-09-03T22:46:58Z</time>
      </trkpt>
      <trkpt lat="45.37693" lon="-0.68942">
        <ele>13</ele>
        <time>2016-09-03T22:48:58Z</time>
      </trkpt>
      <trkpt lat="45.37686" lon="-0.68964">
        <ele>12</ele>
        <time>2016-09-03T22:50:58Z</time>
      </trkpt>
      <trkpt lat="45.37684" lon="-0.68967">
        <ele>12</ele>
        <time>2016-09-03T22:52:58Z</time>
      </trkpt>
      <trkpt lat="45.3768" lon="-0.68991">
        <ele>11</ele>
        <time>2016-09-03T22:54:58Z</time>
      </trkpt>
      <trkpt lat="45.37671" lon="-0.69009">
        <ele>10</ele>
        <time>2016-09-03T22:56:58Z</time>
      </trkpt>
      <trkpt lat="45.37665" lon="-0.69026">
        <ele>10</ele>
        <time>2016-09-03T22:58:58Z</time>
      </trkpt>
      <trkpt lat="45.37659" lon="-0.69048">
        <ele>11</ele>
        <time>2016-09-03T23:00:58Z</time>
      </trkpt>
      <trkpt lat="45.37647" lon="-0.69066">
        <ele>11</ele>
        <time>2016-09-03T23:02:58Z</time>
      </trkpt>
      <trkpt lat="45.37644" lon="-0.69073">
        <ele>11</ele>
        <time>2016-09-03T23:04:58Z</time>
      </trkpt>
      <trkpt lat="45.37644" lon="-0.69072">
        <ele>11</ele>
        <time>2016-09-03T23:06:58Z</time>
      </trkpt>
      <trkpt lat="45.37645" lon="-0.69073">
        <ele>11</ele>
        <time>2016-09-03T23:08:58Z</time>
      </trkpt>
      <trkpt lat="45.37652" lon="-0.69081">
        <ele>11</ele>
        <time>2016-09-03T23:10:58Z</time>
      </trkpt>
      <trkpt lat="45.37661" lon="-0.69087">
        <ele>12</ele>
        <time>2016-09-03T23:12:58Z</time>
      </trkpt>
      <trkpt lat="45.37671" lon="-0.69097">
        <ele>14</ele>
        <time>2016-09-03T23:14:58Z</time>
      </trkpt>
      <trkpt lat="45.37684" lon="-0.6911">
        <ele>16</ele>
        <time>2016-09-03T23:16:58Z</time>
      </trkpt>
      <trkpt lat="45.37691" lon="-0.69123">
        <ele>18</ele>
        <time>2016-09-03T23:18:58Z</time>
      </trkpt>
      <trkpt lat="45.37713" lon="-0.6916">
        <ele>22</ele>
        <time>2016-09-03T23:20:58Z</time>
      </trkpt>
      <trkpt lat="45.37721" lon="-0.69166">
        <ele>23</ele>
        <time>2016-09-03T23:22:58Z</time>
      </trkpt>
      <trkpt lat="45.37736" lon="-0.69181">
        <ele>24</ele>
        <time>2016-09-03T23:24:58Z</time>
      </trkpt>
      <trkpt lat="45.37753" lon="-0.69193">
        <ele>26</ele>
        <time>2016-09-03T23:26:58Z</time>
      </trkpt>
      <trkpt lat="45.37767" lon="-0.69196">
        <ele>27</ele>
        <time>2016-09-03T23:28:58Z</time>
      </trkpt>
      <trkpt lat="45.37777" lon="-0.69198">
        <ele>28</ele>
        <time>2016-09-03T23:30:58Z</time>
      </trkpt>
      <trkpt lat="45.37779" lon="-0.69199">
        <ele>28</ele>
        <time>2016-09-03T23:32:58Z</time>
      </trkpt>
      <trkpt lat="45.37804" lon="-0.69201">
        <ele>30</ele>
        <time>2016-09-03T23:34:58Z</time>
      </trkpt>
      <trkpt lat="45.37822" lon="-0.69202">
        <ele>31</ele>
        <time>2016-09-03T23:36:58Z</time>
      </trkpt>
      <trkpt lat="45.37823" lon="-0.69204">
        <ele>31</ele>
        <time>2016-09-03T23:38:58Z</time>
      </trkpt>
      <trkpt lat="45.37823" lon="-0.69212">
        <ele>31</ele>
        <time>2016-09-03T23:40:58Z</time>
      </trkpt>
      <trkpt lat="45.37823" lon="-0.69218">
        <ele>32</ele>
        <time>2016-09-03T23:42:58Z</time>
      </trkpt>
      <trkpt lat="45.37825" lon="-0.69245">
        <ele>32</ele>
        <time>2016-09-03T23:44:58Z</time>
      </trkpt>
      <trkpt lat="45.37827" lon="-0.69252">
        <ele>33</ele>
        <time>2016-09-03T23:46:58Z</time>
      </trkpt>
      <trkpt lat="45.37832" lon="-0.6927">
        <ele>33</ele>
        <time>2016-09-03T23:48:58Z</time>
      </trkpt>
      <trkpt lat="45.37832" lon="-0.69269">
        <ele>33</ele>
        <time>2016-09-03T23:50:58Z</time>
      </trkpt>
      <trkpt lat="45.37833" lon="-0.69272">
        <ele>33</ele>
        <time>2016-09-03T23:52:58Z</time>
      </trkpt>
      <trkpt lat="45.37834" lon="-0.69274">
        <ele>33</ele>
        <time>2016-09-03T23:54:58Z</time>
      </trkpt>
      <trkpt lat="45.37845" lon="-0.69299">
        <ele>34</ele>
        <time>2016-09-03T23:56:58Z</time>
      </trkpt>
      <trkpt lat="45.37857" lon="-0.6932">
        <ele>35</ele>
        <time>2016-09-03T23:58:58Z</time>
      </trkpt>
      <trkpt lat="45.3786" lon="-0.69323">
        <ele>36</ele>
        <time>2016-09-04T00:00:58Z</time>
      </trkpt>
      <trkpt lat="45.37859" lon="-0.69324">
        <ele>35</ele>
        <time>2016-09-04T00:02:58Z</time>
      </trkpt>
      <trkpt lat="45.37866" lon="-0.69335">
        <ele>36</ele>
        <time>2016-09-04T00:04:58Z</time>
      </trkpt>
      <trkpt lat="45.37879" lon="-0.69355">
        <ele>37</ele>
        <time>2016-09-04T00:06:58Z</time>
      </trkpt>
      <trkpt lat="45.37885" lon="-0.69361">
        <ele>37</ele>
        <time>2016-09-04T00:08:58Z</time>
      </trkpt>
      <trkpt lat="45.37889" lon="-0.69374">
        <ele>37</ele>
        <time>2016-09-04T00:10:58Z</time>
      </trkpt>
      <trkpt lat="45.37892" lon="-0.69381">
        <ele>37</ele>
        <time>2016-09-04T00:12:58Z</time>
      </trkpt>
      <trkpt lat="45.3792" lon="-0.69433">
        <ele>39</ele>
        <time>2016-09-04T00:14:58Z</time>
      </trkpt>
      <trkpt lat="45.37927" lon="-0.69451">
        <ele>38</ele>
        <time>2016-09-04T00:16:58Z</time>
      </trkpt>
      <trkpt lat="45.37932" lon="-0.69481">
        <ele>37</ele>
        <time>2016-09-04T00:18:58Z</time>
      </trkpt>
      <trkpt lat="45.37933" lon="-0.69486">
        <ele>37</ele>
        <time>2016-09-04T00:20:58Z</time>
      </trkpt>
      <trkpt lat="45.37934" lon="-0.69492">
        <ele>37</ele>
        <time>2016-09-04T00:22:58Z</time>
      </trkpt>
      <trkpt lat="45.37942" lon="-0.69514">
        <ele>37</ele>
        <time>2016-09-04T00:24:58Z</time>
      </trkpt>
      <trkpt lat="45.37947" lon="-0.69528">
        <ele>36</ele>
        <time>2016-09-04T00:26:58Z</time>
      </trkpt>
      <trkpt lat="45.37957" lon="-0.69549">
        <ele>36</ele>
        <time>2016-09-04T00:28:58Z</time>
      </trkpt>
      <trkpt lat="45.3798" lon="-0.69597">
        <ele>34</ele>
        <time>2016-09-04T00:30:58Z</time>
      </trkpt>
      <trkpt lat="45.37986" lon="-0.69607">
        <ele>33</ele>
        <time>2016-09-04T00:32:58Z</time>
      </trkpt>
      <trkpt lat="45.37986" lon="-0.69607">
        <ele>33</ele>
        <time>2016-09-04T00:34:58Z</time>
      </trkpt>
      <trkpt lat="45.37988" lon="-0.69612">
        <ele>33</ele>
        <time>2016-09-04T00:36:58Z</time>
      </trkpt>
      <trkpt lat="45.37998" lon="-0.69631">
        <ele>32</ele>
        <time>2016-09-04T00:38:58Z</time>
      </trkpt>
      <trkpt lat="45.38002" lon="-0.69633">
        <ele>32</ele>
        <time>2016-09-04T00:40:58Z</time>
      </trkpt>
      <trkpt lat="45.38016" lon="-0.69623">
        <ele>31</ele>
        <time>2016-09-04T00:42:58Z</time>
      </trkpt>
      <trkpt lat="45.38029" lon="-0.69606">
        <ele>32</ele>
        <time>2016-09-04T00:44:58Z</time>
      </trkpt>
      <trkpt lat="45.38047" lon="-0.69583">
        <ele>32</ele>
        <time>2016-09-04T00:46:58Z</time>
      </trkpt>
      <trkpt lat="45.38062" lon="-0.69561">
        <ele>32</ele>
        <time>2016-09-04T00:48:58Z</time>
      </trkpt>
      <trkpt lat="45.38082" lon="-0.69525">
        <ele>33</ele>
        <time>2016-09-04T00:50:58Z</time>
      </trkpt>
      <trkpt lat="45.3809" lon="-0.69507">
        <ele>34</ele>
        <time>2016-09-04T00:52:58Z</time>
      </trkpt>
      <trkpt lat="45.38091" lon="-0.69507">
        <ele>34</ele>
        <time>2016-09-04T00:54:58Z</time>
      </trkpt>
      <trkpt lat="45.38102" lon="-0.69507">
        <ele>33</ele>
        <time>2016-09-04T00:56:58Z</time>
      </trkpt>
      <trkpt lat="45.38109" lon="-0.69513">
        <ele>32</ele>
        <time>2016-09-04T00:58:58Z</time>
      </trkpt>
      <trkpt lat="45.38117" lon="-0.69523">
        <ele>31</ele>
        <time>2016-09-04T01:00:58Z</time>
      </trkpt>
      <trkpt lat="45.38134" lon="-0.69542">
        <ele>28</ele>
        <time>2016-09-04T01:02:58Z</time>
      </trkpt>
      <trkpt lat="45.38138" lon="-0.69547">
        <ele>28</ele>
        <time>2016-09-04T01:04:58Z</time>
      </trkpt>
      <trkpt lat="45.3815" lon="-0.69569">
        <ele>25</ele>
        <time>2016-09-04T01:06:58Z</time>
      </trkpt>
      <trkpt lat="45.38161" lon="-0.6959">
        <ele>22</ele>
        <time>2016-09-04T01:08:58Z</time>
      </trkpt>
      <trkpt lat="45.38179" lon="-0.6962">
        <ele>19</ele>
        <time>2016-09-04T01:10:58Z</time>
      </trkpt>
      <trkpt lat="45.38181" lon="-0.69632">
        <ele>18</ele>
        <time>2016-09-04T01:12:58Z</time>
      </trkpt>
      <trkpt lat="45.38183" lon="-0.69638">
        <ele>17</ele>
        <time>2016-09-04T01:14:58Z</time>
      </trkpt>
      <trkpt lat="45.38191" lon="-0.69651">
        <ele>16</ele>
        <time>2016-09-04T01:16:58Z</time>
      </trkpt>
      <trkpt lat="45.38198" lon="-0.69662">
        <ele>16</ele>
        <time>2016-09-04T01:18:58Z</time>
      </trkpt>
      <trkpt lat="45.38202" lon="-0.69667">
        <ele>15</ele>
        <time>2016-09-04T01:20:58Z</time>
      </trkpt>
      <trkpt lat="45.38212" lon="-0.69681">
        <ele>16</ele>
        <time>2016-09-04T01:22:58Z</time>
      </trkpt>
      <trkpt lat="45.38222" lon="-0.69694">
        <ele>16</ele>
        <time>2016-09-04T01:24:58Z</time>
      </trkpt>
      <trkpt lat="45.38226" lon="-0.69695">
        <ele>16</ele>
        <time>2016-09-04T01:26:58Z</time>
      </trkpt>
      <trkpt lat="45.38228" lon="-0.69695">
        <ele>16</ele>
        <time>2016-09-04T01:28:58Z</time>
      </trkpt>
      <trkpt lat="45.3823" lon="-0.6969">
        <ele>16</ele>
        <time>2016-09-04T01:30:58Z</time>
      </trkpt>
      <trkpt lat="45.38231" lon="-0.6969">
        <ele>16</ele>
        <time>2016-09-04T01:32:58Z</time>
      </trkpt>
      <trkpt lat="45.38232" lon="-0.69691">
        <ele>17</ele>
        <time>2016-09-04T01:34:58Z</time>
      </trkpt>
      <trkpt lat="45.3823" lon="-0.6969">
        <ele>16</ele>
        <time>2016-09-04T01:36:58Z</time>
      </trkpt>
      <trkpt lat="45.3823" lon="-0.69691">
        <ele>16</ele>
        <time>2016-09-04T01:38:58Z</time>
      </trkpt>
      <trkpt lat="45.3823" lon="-0.6969">
        <ele>16</ele>
        <time>2016-09-04T01:40:58Z</time>
      </trkpt>
      <trkpt lat="45.38233" lon="-0.69687">
        <ele>16</ele>
        <time>2016-09-04T01:42:58Z</time>
      </trkpt>
      <trkpt lat="45.38242" lon="-0.69675">
        <ele>16</ele>
        <time>2016-09-04T01:44:58Z</time>
      </trkpt>
      <trkpt lat="45.38253" lon="-0.69661">
        <ele>16</ele>
        <time>2016-09-04T01:46:58Z</time>
      </trkpt>
      <trkpt lat="45.38273" lon="-0.69637">
        <ele>18</ele>
        <time>2016-09-04T01:48:58Z</time>
      </trkpt>
      <trkpt lat="45.38277" lon="-0.69634">
        <ele>19</ele>
        <time>2016-09-04T01:50:58Z</time>
      </trkpt>
      <trkpt lat="45.38278" lon="-0.69633">
        <ele>19</ele>
        <time>2016-09-04T01:52:58Z</time>
      </trkpt>
      <trkpt lat="45.3828" lon="-0.6963">
        <ele>19</ele>
        <time>2016-09-04T01:54:58Z</time>
      </trkpt>
      <trkpt lat="45.38302" lon="-0.69617">
        <ele>20</ele>
        <time>2016-09-04T01:56:58Z</time>
      </trkpt>
      <trkpt lat="45.38309" lon="-0.69612">
        <ele>21</ele>
        <time>2016-09-04T01:58:58Z</time>
      </trkpt>
      <trkpt lat="45.38318" lon="-0.69607">
        <ele>21</ele>
        <time>2016-09-04T02:00:58Z</time>
      </trkpt>
      <trkpt lat="45.3832" lon="-0.69606">
        <ele>21</ele>
        <time>2016-09-04T02:02:58Z</time>
      </trkpt>
      <trkpt lat="45.38345" lon="-0.69591">
        <ele>23</ele>
        <time>2016-09-04T02:04:58Z</time>
      </trkpt>
      <trkpt lat="45.38366" lon="-0.69576">
        <ele>26</ele>
        <time>2016-09-04T02:06:58Z</time>
      </trkpt>
      <trkpt lat="45.38378" lon="-0.69567">
        <ele>28</ele>
        <time>2016-09-04T02:08:58Z</time>
      </trkpt>
      <trkpt lat="45.38393" lon="-0.69551">
        <ele>30</ele>
        <time>2016-09-04T02:10:58Z</time>
      </trkpt>
      <trkpt lat="45.38401" lon="-0.6954">
        <ele>31</ele>
        <time>2016-09-04T02:12:58Z</time>
      </trkpt>
      <trkpt lat="45.38411" lon="-0.69529">
        <ele>32</ele>
        <time>2016-09-04T02:14:58Z</time>
      </trkpt>
      <trkpt lat="45.38422" lon="-0.69525">
        <ele>34</ele>
        <time>2016-09-04T02:16:58Z</time>
      </trkpt>
      <trkpt lat="45.38434" lon="-0.6952">
        <ele>36</ele>
        <time>2016-09-04T02:18:58Z</time>
      </trkpt>
      <trkpt lat="45.38449" lon="-0.69524">
        <ele>38</ele>
        <time>2016-09-04T02:20:58Z</time>
      </trkpt>
      <trkpt lat="45.38461" lon="-0.69537">
        <ele>40</ele>
        <time>2016-09-04T02:22:58Z</time>
      </trkpt>
      <trkpt lat="45.38478" lon="-0.69549">
        <ele>43</ele>
        <time>2016-09-04T02:24:58Z</time>
      </trkpt>
      <trkpt lat="45.38492" lon="-0.69553">
        <ele>45</ele>
        <time>2016-09-04T02:26:58Z</time>
      </trkpt>
      <trkpt lat="45.38505" lon="-0.69562">
        <ele>47</ele>
        <time>2016-09-04T02:28:58Z</time>
      </trkpt>
      <trkpt lat="45.38515" lon="-0.69564">
        <ele>48</ele>
        <time>2016-09-04T02:30:58Z</time>
      </trkpt>
      <trkpt lat="45.38529" lon="-0.69571">
        <ele>49</ele>
        <time>2016-09-04T02:32:58Z</time>
      </trkpt>
      <trkpt lat="45.38541" lon="-0.69584">
        <ele>50</ele>
        <time>2016-09-04T02:34:58Z</time>
      </trkpt>
      <trkpt lat="45.38566" lon="-0.69601">
        <ele>53</ele>
        <time>2016-09-04T02:36:58Z</time>
      </trkpt>
      <trkpt lat="45.38582" lon="-0.69616">
        <ele>55</ele>
        <time>2016-09-04T02:38:58Z</time>
      </trkpt>
      <trkpt lat="45.38593" lon="-0.69629">
        <ele>56</ele>
        <time>2016-09-04T02:40:58Z</time>
      </trkpt>
      <trkpt lat="45.38594" lon="-0.69631">
        <ele>56</ele>
        <time>2016-09-04T02:42:58Z</time>
      </trkpt>
      <trkpt lat="45.38597" lon="-0.69631">
        <ele>56</ele>
        <time>2016-09-04T02:44:58Z</time>
      </trkpt>
      <trkpt lat="45.38598" lon="-0.69635">
        <ele>56</ele>
        <time>2016-09-04T02:46:58Z</time>
      </trkpt>
      <trkpt lat="45.38598" lon="-0.69635">
        <ele>56</ele>
        <time>2016-09-04T02:48:58Z</time>
      </trkpt>
      <trkpt lat="45.38596" lon="-0.69634">
        <ele>56</ele>
        <time>2016-09-04T02:50:58Z</time>
      </trkpt>
      <trkpt lat="45.38597" lon="-0.69633">
        <ele>56</ele>
        <time>2016-09-04T02:52:58Z</time>
      </trkpt>
      <trkpt lat="45.38595" lon="-0.69635">
        <ele>56</ele>
        <time>2016-09-04T02:54:58Z</time>
      </trkpt>
      <trkpt lat="45.38595" lon="-0.69635">
        <ele>56</ele>
        <time>2016-09-04T02:56:58Z</time>
      </trkpt>
      <trkpt lat="45.38595" lon="-0.69634">
        <ele>56</ele>
        <time>2016-09-04T02:58:58Z</time>
      </trkpt>
      <trkpt lat="45.38595" lon="-0.69635">
        <ele>56</ele>
        <time>2016-09-04T03:00:58Z</time>
      </trkpt>
      <trkpt lat="45.38596" lon="-0.69635">
        <ele>56</ele>
        <time>2016-09-04T03:02:58Z</time>
      </trkpt>
      <trkpt lat="45.38597" lon="-0.69633">
        <ele>56</ele>
        <time>2016-09-04T03:04:58Z</time>
      </trkpt>
      <trkpt lat="45.38597" lon="-0.69634">
        <ele>56</ele>
        <time>2016-09-04T03:06:58Z</time>
      </trkpt>
      <trkpt lat="45.38607" lon="-0.69643">
        <ele>57</ele>
        <time>2016-09-04T03:08:58Z</time>
      </trkpt>
      <trkpt lat="45.38615" lon="-0.69639">
        <ele>57</ele>
        <time>2016-09-04T03:10:58Z</time>
      </trkpt>
      <trkpt lat="45.38619" lon="-0.69628">
        <ele>57</ele>
        <time>2016-09-04T03:12:58Z</time>
      </trkpt>
      <trkpt lat="45.38624" lon="-0.69618">
        <ele>58</ele>
        <time>2016-09-04T03:14:58Z</time>
      </trkpt>
      <trkpt lat="45.38625" lon="-0.69615">
        <ele>58</ele>
        <time>2016-09-04T03:16:58Z</time>
      </trkpt>
      <trkpt lat="45.38627" lon="-0.69615">
        <ele>58</ele>
        <time>2016-09-04T03:18:58Z</time>
      </trkpt>
      <trkpt lat="45.38629" lon="-0.69614">
        <ele>58</ele>
        <time>2016-09-04T03:20:58Z</time>
      </trkpt>
      <trkpt lat="45.38631" lon="-0.6961">
        <ele>58</ele>
        <time>2016-09-04T03:22:58Z</time>
      </trkpt>
      <trkpt lat="45.38644" lon="-0.69581">
        <ele>60</ele>
        <time>2016-09-04T03:24:58Z</time>
      </trkpt>
      <trkpt lat="45.38655" lon="-0.69561">
        <ele>61</ele>
        <time>2016-09-04T03:26:58Z</time>
      </trkpt>
      <trkpt lat="45.38665" lon="-0.6954">
        <ele>62</ele>
        <time>2016-09-04T03:28:58Z</time>
      </trkpt>
      <trkpt lat="45.38678" lon="-0.69507">
        <ele>63</ele>
        <time>2016-09-04T03:30:58Z</time>
      </trkpt>
      <trkpt lat="45.38687" lon="-0.69486">
        <ele>63</ele>
        <time>2016-09-04T03:32:58Z</time>
      </trkpt>
      <trkpt lat="45.38689" lon="-0.69481">
        <ele>64</ele>
        <time>2016-09-04T03:34:58Z</time>
      </trkpt>
      <trkpt lat="45.38698" lon="-0.69455">
        <ele>65</ele>
        <time>2016-09-04T03:36:58Z</time>
      </trkpt>
      <trkpt lat="45.38717" lon="-0.69384">
        <ele>67</ele>
        <time>2016-09-04T03:38:58Z</time>
      </trkpt>
      <trkpt lat="45.38732" lon="-0.69335">
        <ele>70</ele>
        <time>2016-09-04T03:40:58Z</time>
      </trkpt>
      <trkpt lat="45.38738" lon="-0.69316">
        <ele>70</ele>
        <time>2016-09-04T03:42:58Z</time>
      </trkpt>
      <trkpt lat="45.38747" lon="-0.69304">
        <ele>71</ele>
        <time>2016-09-04T03:44:58Z</time>
      </trkpt>
      <trkpt lat="45.38752" lon="-0.69307">
        <ele>71</ele>
        <time>2016-09-04T03:46:58Z</time>
      </trkpt>
      <trkpt lat="45.38767" lon="-0.69321">
        <ele>71</ele>
        <time>2016-09-04T03:48:58Z</time>
      </trkpt>
      <trkpt lat="45.38769" lon="-0.69323">
        <ele>72</ele>
        <time>2016-09-04T03:50:58Z</time>
      </trkpt>
      <trkpt lat="45.3877" lon="-0.69324">
        <ele>72</ele>
        <time>2016-09-04T03:52:58Z</time>
      </trkpt>
      <trkpt lat="45.38784" lon="-0.69336">
        <ele>72</ele>
        <time>2016-09-04T03:54:58Z</time>
      </trkpt>
      <trkpt lat="45.38787" lon="-0.69338">
        <ele>72</ele>
        <time>2016-09-04T03:56:58Z</time>
      </trkpt>
      <trkpt lat="45.38796" lon="-0.69345">
        <ele>72</ele>
        <time>2016-09-04T03:58:58Z</time>
      </trkpt>
      <trkpt lat="45.38808" lon="-0.69355">
        <ele>72</ele>
        <time>2016-09-04T04:00:58Z</time>
      </trkpt>
      <trkpt lat="45.38812" lon="-0.69359">
        <ele>73</ele>
        <time>2016-09-04T04:02:58Z</time>
      </trkpt>
      <trkpt lat="45.38815" lon="-0.69362">
        <ele>73</ele>
        <time>2016-09-04T04:04:58Z</time>
      </trkpt>
      <trkpt lat="45.38835" lon="-0.69375">
        <ele>73</ele>
        <time>2016-09-04T04:06:58Z</time>
      </trkpt>
      <trkpt lat="45.38849" lon="-0.69387">
        <ele>74</ele>
        <time>2016-09-04T04:08:58Z</time>
      </trkpt>
      <trkpt lat="45.38861" lon="-0.69401">
        <ele>74</ele>
        <time>2016-09-04T04:10:58Z</time>
      </trkpt>
      <trkpt lat="45.38861" lon="-0.69403">
        <ele>74</ele>
        <time>2016-09-04T04:12:58Z</time>
      </trkpt>
      <trkpt lat="45.38861" lon="-0.69407">
        <ele>74</ele>
        <time>2016-09-04T04:14:58Z</time>
      </trkpt>
      <trkpt lat="45.38863" lon="-0.69419">
        <ele>75</ele>
        <time>2016-09-04T04:16:58Z</time>
      </trkpt>
      <trkpt lat="45.38865" lon="-0.69425">
        <ele>74</ele>
        <time>2016-09-04T04:18:58Z</time>
      </trkpt>
      <trkpt lat="45.38866" lon="-0.69442">
        <ele>74</ele>
        <time>2016-09-04T04:20:58Z</time>
      </trkpt>
      <trkpt lat="45.38865" lon="-0.69463">
        <ele>74</ele>
        <time>2016-09-04T04:22:58Z</time>
      </trkpt>
      <trkpt lat="45.38866" lon="-0.69473">
        <ele>74</ele>
        <time>2016-09-04T04:24:58Z</time>
      </trkpt>
      <trkpt lat="45.38866" lon="-0.69478">
        <ele>74</ele>
        <time>2016-09-04T04:26:58Z</time>
      </trkpt>
      <trkpt lat="45.38867" lon="-0.69507">
        <ele>73</ele>
        <time>2016-09-04T04:28:58Z</time>
      </trkpt>
      <trkpt lat="45.38867" lon="-0.69508">
        <ele>73</ele>
        <time>2016-09-04T04:30:58Z</time>
      </trkpt>
      <trkpt lat="45.38874" lon="-0.69547">
        <ele>72</ele>
        <time>2016-09-04T04:32:58Z</time>
      </trkpt>
      <trkpt lat="45.38875" lon="-0.69558">
        <ele>72</ele>
        <time>2016-09-04T04:34:58Z</time>
      </trkpt>
      <trkpt lat="45.38873" lon="-0.69564">
        <ele>72</ele>
        <time>2016-09-04T04:36:58Z</time>
      </trkpt>
      <trkpt lat="45.38868" lon="-0.69578">
        <ele>71</ele>
        <time>2016-09-04T04:38:58Z</time>
      </trkpt>
      <trkpt lat="45.38868" lon="-0.6958">
        <ele>71</ele>
        <time>2016-09-04T04:40:58Z</time>
      </trkpt>
      <trkpt lat="45.38869" lon="-0.69578">
        <ele>71</ele>
        <time>2016-09-04T04:42:58Z</time>
      </trkpt>
      <trkpt lat="45.38876" lon="-0.69596">
        <ele>71</ele>
        <time>2016-09-04T04:44:58Z</time>
      </trkpt>
      <trkpt lat="45.38885" lon="-0.69614">
        <ele>71</ele>
        <time>2016-09-04T04:46:58Z</time>
      </trkpt>
      <trkpt lat="45.38885" lon="-0.69629">
        <ele>70</ele>
        <time>2016-09-04T04:48:58Z</time>
      </trkpt>
      <trkpt lat="45.38887" lon="-0.6963">
        <ele>71</ele>
        <time>2016-09-04T04:50:58Z</time>
      </trkpt>
      <trkpt lat="45.38883" lon="-0.69628">
        <ele>70</ele>
        <time>2016-09-04T04:52:58Z</time>
      </trkpt>
      <trkpt lat="45.38885" lon="-0.69635">
        <ele>70</ele>
        <time>2016-09-04T04:54:58Z</time>
      </trkpt>
      <trkpt lat="45.38885" lon="-0.69654">
        <ele>69</ele>
        <time>2016-09-04T04:56:58Z</time>
      </trkpt>
      <trkpt lat="45.38883" lon="-0.69667">
        <ele>69</ele>
        <time>2016-09-04T04:58:58Z</time>
      </trkpt>
      <trkpt lat="45.38884" lon="-0.6967">
        <ele>69</ele>
        <time>2016-09-04T05:00:58Z</time>
      </trkpt>
      <trkpt lat="45.38883" lon="-0.69672">
        <ele>68</ele>
        <time>2016-09-04T05:02:58Z</time>
      </trkpt>
      <trkpt lat="45.38882" lon="-0.69671">
        <ele>68</ele>
        <time>2016-09-04T05:04:58Z</time>
      </trkpt>
      <trkpt lat="45.38882" lon="-0.69672">
        <ele>68</ele>
        <time>2016-09-04T05:06:58Z</time>
      </trkpt>
      <trkpt lat="45.38883" lon="-0.69674">
        <ele>68</ele>
        <time>2016-09-04T05:08:58Z</time>
      </trkpt>
      <trkpt lat="45.38883" lon="-0.6968">
        <ele>68</ele>
        <time>2016-09-04T05:10:58Z</time>
      </trkpt>
      <trkpt lat="45.38885" lon="-0.69693">
        <ele>68</ele>
        <time>2016-09-04T05:12:58Z</time>
      </trkpt>
      <trkpt lat="45.38887" lon="-0.69701">
        <ele>67</ele>
        <time>2016-09-04T05:14:58Z</time>
      </trkpt>
      <trkpt lat="45.38886" lon="-0.69716">
        <ele>66</ele>
        <time>2016-09-04T05:16:58Z</time>
      </trkpt>
      <trkpt lat="45.38885" lon="-0.6972">
        <ele>66</ele>
        <time>2016-09-04T05:18:58Z</time>
      </trkpt>
      <trkpt lat="45.38884" lon="-0.69728">
        <ele>66</ele>
        <time>2016-09-04T05:20:58Z</time>
      </trkpt>
      <trkpt lat="45.38883" lon="-0.69734">
        <ele>65</ele>
        <time>2016-09-04T05:22:58Z</time>
      </trkpt>
      <trkpt lat="45.38881" lon="-0.69753">
        <ele>64</ele>
        <time>2016-09-04T05:24:58Z</time>
      </trkpt>
      <trkpt lat="45.38881" lon="-0.69755">
        <ele>64</ele>
        <time>2016-09-04T05:26:58Z</time>
      </trkpt>
      <trkpt lat="45.38879" lon="-0.69775">
        <ele>63</ele>
        <time>2016-09-04T05:28:58Z</time>
      </trkpt>
      <trkpt lat="45.38877" lon="-0.69785">
        <ele>63</ele>
        <time>2016-09-04T05:30:58Z</time>
      </trkpt>
      <trkpt lat="45.3888" lon="-0.69804">
        <ele>62</ele>
        <time>2016-09-04T05:32:58Z</time>
      </trkpt>
      <trkpt lat="45.38883" lon="-0.6983">
        <ele>61</ele>
        <time>2016-09-04T05:34:58Z</time>
      </trkpt>
      <trkpt lat="45.38882" lon="-0.69846">
        <ele>60</ele>
        <time>2016-09-04T05:36:58Z</time>
      </trkpt>
      <trkpt lat="45.38884" lon="-0.69853">
        <ele>60</ele>
        <time>2016-09-04T05:38:58Z</time>
      </trkpt>
      <trkpt lat="45.38885" lon="-0.6987">
        <ele>59</ele>
        <time>2016-09-04T05:40:58Z</time>
      </trkpt>
      <trkpt lat="45.38888" lon="-0.69882">
        <ele>59</ele>
        <time>2016-09-04T05:42:58Z</time>
      </trkpt>
      <trkpt lat="45.38891" lon="-0.69902">
        <ele>58</ele>
        <time>2016-09-04T05:44:58Z</time>
      </trkpt>
      <trkpt lat="45.38889" lon="-0.69926">
        <ele>56</ele>
        <time>2016-09-04T05:46:58Z</time>
      </trkpt>
      <trkpt lat="45.38893" lon="-0.69952">
        <ele>55</ele>
        <time>2016-09-04T05:48:58Z</time>
      </trkpt>
      <trkpt lat="45.38891" lon="-0.69976">
        <ele>54</ele>
        <time>2016-09-04T05:50:58Z</time>
      </trkpt>
      <trkpt lat="45.38887" lon="-0.70001">
        <ele>52</ele>
        <time>2016-09-04T05:52:58Z</time>
      </trkpt>
      <trkpt lat="45.3888" lon="-0.70028">
        <ele>51</ele>
        <time>2016-09-04T05:54:58Z</time>
      </trkpt>
      <trkpt lat="45.38879" lon="-0.70037">
        <ele>51</ele>
        <time>2016-09-04T05:56:58Z</time>
      </trkpt>
      <trkpt lat="45.38876" lon="-0.70045">
        <ele>51</ele>
        <time>2016-09-04T05:58:58Z</time>
      </trkpt>
      <trkpt lat="45.38862" lon="-0.70082">
        <ele>50</ele>
        <time>2016-09-04T06:00:58Z</time>
      </trkpt>
      <trkpt lat="45.38856" lon="-0.70101">
        <ele>50</ele>
        <time>2016-09-04T06:02:58Z</time>
      </trkpt>
      <trkpt lat="45.38842" lon="-0.70133">
        <ele>49</ele>
        <time>2016-09-04T06:04:58Z</time>
      </trkpt>
      <trkpt lat="45.38832" lon="-0.70156">
        <ele>48</ele>
        <time>2016-09-04T06:06:58Z</time>
      </trkpt>
      <trkpt lat="45.38828" lon="-0.70181">
        <ele>47</ele>
        <time>2016-09-04T06:08:58Z</time>
      </trkpt>
      <trkpt lat="45.38828" lon="-0.70194">
        <ele>47</ele>
        <time>2016-09-04T06:10:58Z</time>
      </trkpt>
      <trkpt lat="45.38829" lon="-0.70203">
        <ele>47</ele>
        <time>2016-09-04T06:12:58Z</time>
      </trkpt>
      <trkpt lat="45.38834" lon="-0.70221">
        <ele>47</ele>
        <time>2016-09-04T06:14:58Z</time>
      </trkpt>
      <trkpt lat="45.38836" lon="-0.70224">
        <ele>47</ele>
        <time>2016-09-04T06:16:58Z</time>
      </trkpt>
      <trkpt lat="45.38842" lon="-0.7025">
        <ele>47</ele>
        <time>2016-09-04T06:18:58Z</time>
      </trkpt>
      <trkpt lat="45.38842" lon="-0.70277">
        <ele>48</ele>
        <time>2016-09-04T06:20:58Z</time>
      </trkpt>
      <trkpt lat="45.38838" lon="-0.70294">
        <ele>49</ele>
        <time>2016-09-04T06:22:58Z</time>
      </trkpt>
      <trkpt lat="45.3882" lon="-0.70346">
        <ele>49</ele>
        <time>2016-09-04T06:24:58Z</time>
      </trkpt>
      <trkpt lat="45.38809" lon="-0.70381">
        <ele>48</ele>
        <time>2016-09-04T06:26:58Z</time>
      </trkpt>
      <trkpt lat="45.38809" lon="-0.70408">
        <ele>48</ele>
        <time>2016-09-04T06:28:58Z</time>
      </trkpt>
      <trkpt lat="45.38816" lon="-0.70422">
        <ele>48</ele>
        <time>2016-09-04T06:30:58Z</time>
      </trkpt>
      <trkpt lat="45.3883" lon="-0.70444">
        <ele>48</ele>
        <time>2016-09-04T06:32:58Z</time>
      </trkpt>
      <trkpt lat="45.38843" lon="-0.70462">
        <ele>47</ele>
        <time>2016-09-04T06:34:58Z</time>
      </trkpt>
      <trkpt lat="45.38852" lon="-0.70474">
        <ele>47</ele>
        <time>2016-09-04T06:36:58Z</time>
      </trkpt>
      <trkpt lat="45.38854" lon="-0.70475">
        <ele>47</ele>
        <time>2016-09-04T06:38:58Z</time>
      </trkpt>
      <trkpt lat="45.38853" lon="-0.70475">
        <ele>47</ele>
        <time>2016-09-04T06:40:58Z</time>
      </trkpt>
      <trkpt lat="45.38854" lon="-0.70476">
        <ele>47</ele>
        <time>2016-09-04T06:42:58Z</time>
      </trkpt>
      <trkpt lat="45.38876" lon="-0.70504">
        <ele>46</ele>
        <time>2016-09-04T06:44:58Z</time>
      </trkpt>
      <trkpt lat="45.38879" lon="-0.70509">
        <ele>46</ele>
        <time>2016-09-04T06:46:58Z</time>
      </trkpt>
      <trkpt lat="45.38881" lon="-0.70513">
        <ele>45</ele>
        <time>2016-09-04T06:48:58Z</time>
      </trkpt>
      <trkpt lat="45.38882" lon="-0.70513">
        <ele>45</ele>
        <time>2016-09-04T06:50:58Z</time>
      </trkpt>
      <trkpt lat="45.38882" lon="-0.70514">
        <ele>45</ele>
        <time>2016-09-04T06:52:58Z</time>
      </trkpt>
      <trkpt lat="45.38883" lon="-0.70513">
        <ele>45</ele>
        <time>2016-09-04T06:54:58Z</time>
      </trkpt>
      <trkpt lat="45.38882" lon="-0.70515">
        <ele>45</ele>
        <time>2016-09-04T06:56:58Z</time>
      </trkpt>
      <trkpt lat="45.38884" lon="-0.70521">
        <ele>45</ele>
        <time>2016-09-04T06:58:58Z</time>
      </trkpt>
      <trkpt lat="45.38884" lon="-0.70522">
        <ele>45</ele>
        <time>2016-09-04T07:00:58Z</time>
      </trkpt>
      <trkpt lat="45.38884" lon="-0.70523">
        <ele>45</ele>
        <time>2016-09-04T07:02:58Z</time>
      </trkpt>
      <trkpt lat="45.38884" lon="-0.70523">
        <ele>45</ele>
        <time>2016-09-04T07:04:58Z</time>
      </trkpt>
      <trkpt lat="45.38883" lon="-0.70524">
        <ele>45</ele>
        <time>2016-09-04T07:06:58Z</time>
      </trkpt>
      <trkpt lat="45.38883" lon="-0.70524">
        <ele>45</ele>
        <time>2016-09-04T07:08:58Z</time>
      </trkpt>
      <trkpt lat="45.38882" lon="-0.70525">
        <ele>45</ele>
        <time>2016-09-04T07:10:58Z</time>
      </trkpt>
      <trkpt lat="45.38883" lon="-0.70524">
        <ele>45</ele>
        <time>2016-09-04T07:12:58Z</time>
      </trkpt>
      <trkpt lat="45.38886" lon="-0.7053">
        <ele>45</ele>
        <time>2016-09-04T07:14:58Z</time>
      </trkpt>
      <trkpt lat="45.38888" lon="-0.70537">
        <ele>44</ele>
        <time>2016-09-04T07:16:58Z</time>
      </trkpt>
      <trkpt lat="45.389" lon="-0.70557">
        <ele>43</ele>
        <time>2016-09-04T07:18:58Z</time>
      </trkpt>
      <trkpt lat="45.38912" lon="-0.70579">
        <ele>42</ele>
        <time>2016-09-04T07:20:58Z</time>
      </trkpt>
      <trkpt lat="45.38928" lon="-0.70601">
        <ele>41</ele>
        <time>2016-09-04T07:22:58Z</time>
      </trkpt>
      <trkpt lat="45.38943" lon="-0.7063">
        <ele>40</ele>
        <time>2016-09-04T07:24:58Z</time>
      </trkpt>
      <trkpt lat="45.38958" lon="-0.70661">
        <ele>39</ele>
        <time>2016-09-04T07:26:58Z</time>
      </trkpt>
      <trkpt lat="45.38968" lon="-0.70689">
        <ele>38</ele>
        <time>2016-09-04T07:28:58Z</time>
      </trkpt>
      <trkpt lat="45.38967" lon="-0.70696">
        <ele>37</ele>
        <time>2016-09-04T07:30:58Z</time>
      </trkpt>
      <trkpt lat="45.38962" lon="-0.70704">
        <ele>37</ele>
        <time>2016-09-04T07:32:58Z</time>
      </trkpt>
      <trkpt lat="45.38956" lon="-0.70711">
        <ele>36</ele>
        <time>2016-09-04T07:34:58Z</time>
      </trkpt>
      <trkpt lat="45.38952" lon="-0.70713">
        <ele>36</ele>
        <time>2016-09-04T07:36:58Z</time>
      </trkpt>
      <trkpt lat="45.38952" lon="-0.70711">
        <ele>36</ele>
        <time>2016-09-04T07:38:58Z</time>
      </trkpt>
      <trkpt lat="45.38954" lon="-0.70711">
        <ele>36</ele>
        <time>2016-09-04T07:40:58Z</time>
      </trkpt>
      <trkpt lat="45.38948" lon="-0.70717">
        <ele>36</ele>
        <time>2016-09-04T07:42:58Z</time>
      </trkpt>
      <trkpt lat="45.38947" lon="-0.70716">
        <ele>36</ele>
        <time>2016-09-04T07:44:58Z</time>
      </trkpt>
      <trkpt lat="45.38949" lon="-0.70715">
        <ele>36</ele>
        <time>2016-09-04T07:46:58Z</time>
      </trkpt>
      <trkpt lat="45.38948" lon="-0.70716">
        <ele>36</ele>
        <time>2016-09-04T07:48:58Z</time>
      </trkpt>
      <trkpt lat="45.38949" lon="-0.70715">
        <ele>36</ele>
        <time>2016-09-04T07:50:58Z</time>
      </trkpt>
      <trkpt lat="45.38948" lon="-0.70715">
        <ele>36</ele>
        <time>2016-09-04T07:52:58Z</time>
      </trkpt>
      <trkpt lat="45.3895" lon="-0.70716">
        <ele>36</ele>
        <time>2016-09-04T07:54:58Z</time>
      </trkpt>
      <trkpt lat="45.38951" lon="-0.70717">
        <ele>36</ele>
        <time>2016-09-04T07:56:58Z</time>
      </trkpt>
      <trkpt lat="45.3895" lon="-0.70716">
        <ele>36</ele>
        <time>2016-09-04T07:58:58Z</time>
      </trkpt>
      <trkpt lat="45.38951" lon="-0.70717">
        <ele>36</ele>
        <time>2016-09-04T08:00:58Z</time>
      </trkpt>
      <trkpt lat="45.38951" lon="-0.70717">
        <ele>36</ele>
        <time>2016-09-04T08:02:58Z</time>
      </trkpt>
      <trkpt lat="45.38951" lon="-0.70716">
        <ele>36</ele>
        <time>2016-09-04T08:04:58Z</time>
      </trkpt>
      <trkpt lat="45.38951" lon="-0.70716">
        <ele>36</ele>
        <time>2016-09-04T08:06:58Z</time>
      </trkpt>
      <trkpt lat="45.38951" lon="-0.70717">
        <ele>36</ele>
        <time>2016-09-04T08:08:58Z</time>
      </trkpt>
      <trkpt lat="45.38952" lon="-0.70718">
        <ele>36</ele>
        <time>2016-09-04T08:10:58Z</time>
      </trkpt>
      <trkpt lat="45.38951" lon="-0.70718">
        <ele>36</ele>
        <time>2016-09-04T08:12:58Z</time>
      </trkpt>
      <trkpt lat="45.38952" lon="-0.70719">
        <ele>36</ele>
        <time>2016-09-04T08:14:58Z</time>
      </trkpt>
      <trkpt lat="45.38952" lon="-0.70718">
        <ele>36</ele>
        <time>2016-09-04T08:16:58Z</time>
      </trkpt>
      <trkpt lat="45.3895" lon="-0.70717">
        <ele>36</ele>
        <time>2016-09-04T08:18:58Z</time>
      </trkpt>
      <trkpt lat="45.38952" lon="-0.70717">
        <ele>36</ele>
        <time>2016-09-04T08:20:58Z</time>
      </trkpt>
      <trkpt lat="45.3895" lon="-0.70718">
        <ele>36</ele>
        <time>2016-09-04T08:22:58Z</time>
      </trkpt>
      <trkpt lat="45.38947" lon="-0.7072">
        <ele>36</ele>
        <time>2016-09-04T08:24:58Z</time>
      </trkpt>
      <trkpt lat="45.38947" lon="-0.70721">
        <ele>36</ele>
        <time>2016-09-04T08:26:58Z</time>
      </trkpt>
      <trkpt lat="45.38947" lon="-0.7072">
        <ele>36</ele>
        <time>2016-09-04T08:28:58Z</time>
      </trkpt>
      <trkpt lat="45.38942" lon="-0.70727">
        <ele>35</ele>
        <time>2016-09-04T08:30:58Z</time>
      </trkpt>
      <trkpt lat="45.38927" lon="-0.70741">
        <ele>34</ele>
        <time>2016-09-04T08:32:58Z</time>
      </trkpt>
      <trkpt lat="45.38916" lon="-0.70749">
        <ele>33</ele>
        <time>2016-09-04T08:34:58Z</time>
      </trkpt>
      <trkpt lat="45.38908" lon="-0.70752">
        <ele>32</ele>
        <time>2016-09-04T08:36:58Z</time>
      </trkpt>
      <trkpt lat="45.38905" lon="-0.70765">
        <ele>30</ele>
        <time>2016-09-04T08:38:58Z</time>
      </trkpt>
      <trkpt lat="45.38903" lon="-0.70775">
        <ele>29</ele>
        <time>2016-09-04T08:40:58Z</time>
      </trkpt>
      <trkpt lat="45.38898" lon="-0.7079">
        <ele>27</ele>
        <time>2016-09-04T08:42:58Z</time>
      </trkpt>
      <trkpt lat="45.38894" lon="-0.70803">
        <ele>25</ele>
        <time>2016-09-04T08:44:58Z</time>
      </trkpt>
      <trkpt lat="45.38889" lon="-0.70818">
        <ele>23</ele>
        <time>2016-09-04T08:46:58Z</time>
      </trkpt>
      <trkpt lat="45.38882" lon="-0.70841">
        <ele>20</ele>
        <time>2016-09-04T08:48:58Z</time>
      </trkpt>
      <trkpt lat="45.38877" lon="-0.70848">
        <ele>18</ele>
        <time>2016-09-04T08:50:58Z</time>
      </trkpt>
      <trkpt lat="45.38876" lon="-0.70849">
        <ele>18</ele>
        <time>2016-09-04T08:52:58Z</time>
      </trkpt>
      <trkpt lat="45.38878" lon="-0.70851">
        <ele>18</ele>
        <time>2016-09-04T08:54:58Z</time>
      </trkpt>
      <trkpt lat="45.38878" lon="-0.70852">
        <ele>18</ele>
        <time>2016-09-04T08:56:58Z</time>
      </trkpt>
      <trkpt lat="45.38878" lon="-0.7085">
        <ele>18</ele>
        <time>2016-09-04T08:58:58Z</time>
      </trkpt>
      <trkpt lat="45.38878" lon="-0.70856">
        <ele>17</ele>
        <time>2016-09-04T09:00:58Z</time>
      </trkpt>
      <trkpt lat="45.38892" lon="-0.70874">
        <ele>17</ele>
        <time>2016-09-04T09:02:58Z</time>
      </trkpt>
      <trkpt lat="45.38909" lon="-0.70894">
        <ele>17</ele>
        <time>2016-09-04T09:04:58Z</time>
      </trkpt>
      <trkpt lat="45.38926" lon="-0.70916">
        <ele>16</ele>
        <time>2016-09-04T09:06:58Z</time>
      </trkpt>
      <trkpt lat="45.38942" lon="-0.70933">
        <ele>15</ele>
        <time>2016-09-04T09:08:58Z</time>
      </trkpt>
      <trkpt lat="45.38959" lon="-0.70947">
        <ele>15</ele>
        <time>2016-09-04T09:10:58Z</time>
      </trkpt>
      <trkpt lat="45.38975" lon="-0.70957">
        <ele>15</ele>
        <time>2016-09-04T09:12:58Z</time>
      </trkpt>
      <trkpt lat="45.38999" lon="-0.7097">
        <ele>14</ele>
        <time>2016-09-04T09:14:58Z</time>
      </trkpt>
      <trkpt lat="45.39022" lon="-0.70979">
        <ele>12</ele>
        <time>2016-09-04T09:16:58Z</time>
      </trkpt>
      <trkpt lat="45.39042" lon="-0.7098">
        <ele>12</ele>
        <time>2016-09-04T09:18:58Z</time>
      </trkpt>
      <trkpt lat="45.39057" lon="-0.70975">
        <ele>12</ele>
        <time>2016-09-04T09:20:58Z</time>
      </trkpt>
      <trkpt lat="45.39077" lon="-0.70966">
        <ele>12</ele>
        <time>2016-09-04T09:22:58Z</time>
      </trkpt>
      <trkpt lat="45.39094" lon="-0.70962">
        <ele>12</ele>
        <time>2016-09-04T09:24:58Z</time>
      </trkpt>
      <trkpt lat="45.39115" lon="-0.70955">
        <ele>11</ele>
        <time>2016-09-04T09:26:58Z</time>
      </trkpt>
      <trkpt lat="45.39133" lon="-0.70944">
        <ele>11</ele>
        <time>2016-09-04T09:28:58Z</time>
      </trkpt>
      <trkpt lat="45.39143" lon="-0.70943">
        <ele>11</ele>
        <time>2016-09-04T09:30:58Z</time>
      </trkpt>
      <trkpt lat="45.3915" lon="-0.70948">
        <ele>10</ele>
        <time>2016-09-04T09:32:58Z</time>
      </trkpt>
      <trkpt lat="45.39168" lon="-0.70971">
        <ele>8</ele>
        <time>2016-09-04T09:34:58Z</time>
      </trkpt>
      <trkpt lat="45.39181" lon="-0.70995">
        <ele>7</ele>
        <time>2016-09-04T09:36:58Z</time>
      </trkpt>
      <trkpt lat="45.39186" lon="-0.71006">
        <ele>6</ele>
        <time>2016-09-04T09:38:58Z</time>
      </trkpt>
      <trkpt lat="45.39189" lon="-0.7101">
        <ele>6</ele>
        <time>2016-09-04T09:40:58Z</time>
      </trkpt>
      <trkpt lat="45.39202" lon="-0.71036">
        <ele>6</ele>
        <time>2016-09-04T09:42:58Z</time>
      </trkpt>
      <trkpt lat="45.39203" lon="-0.71038">
        <ele>6</ele>
        <time>2016-09-04T09:44:58Z</time>
      </trkpt>
      <trkpt lat="45.39206" lon="-0.71046">
        <ele>6</ele>
        <time>2016-09-04T09:46:58Z</time>
      </trkpt>
      <trkpt lat="45.39217" lon="-0.71071">
        <ele>5</ele>
        <time>2016-09-04T09:48:58Z</time>
      </trkpt>
      <trkpt lat="45.39236" lon="-0.71073">
        <ele>6</ele>
        <time>2016-09-04T09:50:58Z</time>
      </trkpt>
      <trkpt lat="45.39244" lon="-0.71072">
        <ele>6</ele>
        <time>2016-09-04T09:52:58Z</time>
      </trkpt>
      <trkpt lat="45.39247" lon="-0.7107">
        <ele>6</ele>
        <time>2016-09-04T09:54:58Z</time>
      </trkpt>
      <trkpt lat="45.39252" lon="-0.71072">
        <ele>6</ele>
        <time>2016-09-04T09:56:58Z</time>
      </trkpt>
      <trkpt lat="45.39254" lon="-0.71072">
        <ele>6</ele>
        <time>2016-09-04T09:58:58Z</time>
      </trkpt>
      <trkpt lat="45.39269" lon="-0.7106">
        <ele>6</ele>
        <time>2016-09-04T10:00:58Z</time>
      </trkpt>
      <trkpt lat="45.39272" lon="-0.7102">
        <ele>6</ele>
        <time>2016-09-04T10:02:58Z</time>
      </trkpt>
      <trkpt lat="45.39274" lon="-0.71004">
        <ele>7</ele>
        <time>2016-09-04T10:04:58Z</time>
      </trkpt>
      <trkpt lat="45.39281" lon="-0.70975">
        <ele>10</ele>
        <time>2016-09-04T10:06:58Z</time>
      </trkpt>
      <trkpt lat="45.39295" lon="-0.70954">
        <ele>12</ele>
        <time>2016-09-04T10:08:58Z</time>
      </trkpt>
      <trkpt lat="45.39299" lon="-0.70949">
        <ele>12</ele>
        <time>2016-09-04T10:10:58Z</time>
      </trkpt>
      <trkpt lat="45.39309" lon="-0.70941">
        <ele>13</ele>
        <time>2016-09-04T10:12:58Z</time>
      </trkpt>
      <trkpt lat="45.39326" lon="-0.70926">
        <ele>14</ele>
        <time>2016-09-04T10:14:58Z</time>
      </trkpt>
      <trkpt lat="45.39347" lon="-0.7091">
        <ele>15</ele>
        <time>2016-09-04T10:16:58Z</time>
      </trkpt>
      <trkpt lat="45.39363" lon="-0.70892">
        <ele>16</ele>
        <time>2016-09-04T10:18:58Z</time>
      </trkpt>
      <trkpt lat="45.39378" lon="-0.70864">
        <ele>17</ele>
        <time>2016-09-04T10:20:58Z</time>
      </trkpt>
      <trkpt lat="45.39388" lon="-0.70836">
        <ele>18</ele>
        <time>2016-09-04T10:22:58Z</time>
      </trkpt>
      <trkpt lat="45.39393" lon="-0.70806">
        <ele>18</ele>
        <time>2016-09-04T10:24:58Z</time>
      </trkpt>
      <trkpt lat="45.39394" lon="-0.70796">
        <ele>19</ele>
        <time>2016-09-04T10:26:58Z</time>
      </trkpt>
      <trkpt lat="45.39391" lon="-0.70744">
        <ele>21</ele>
        <time>2016-09-04T10:28:58Z</time>
      </trkpt>
      <trkpt lat="45.39392" lon="-0.70738">
        <ele>21</ele>
        <time>2016-09-04T10:30:58Z</time>
      </trkpt>
      <trkpt lat="45.3939" lon="-0.7072">
        <ele>22</ele>
        <time>2016-09-04T10:32:58Z</time>
      </trkpt>
      <trkpt lat="45.39389" lon="-0.70697">
        <ele>23</ele>
        <time>2016-09-04T10:34:58Z</time>
      </trkpt>
      <trkpt lat="45.39389" lon="-0.7068">
        <ele>24</ele>
        <time>2016-09-04T10:36:58Z</time>
      </trkpt>
      <trkpt lat="45.39394" lon="-0.70664">
        <ele>24</ele>
        <time>2016-09-04T10:38:58Z</time>
      </trkpt>
      <trkpt lat="45.39399" lon="-0.70645">
        <ele>23</ele>
        <time>2016-09-04T10:40:58Z</time>
      </trkpt>
      <trkpt lat="45.39407" lon="-0.70623">
        <ele>22</ele>
        <time>2016-09-04T10:42:58Z</time>
      </trkpt>
      <trkpt lat="45.39416" lon="-0.70601">
        <ele>21</ele>
        <time>2016-09-04T10:44:58Z</time>
      </trkpt>
      <trkpt lat="45.39426" lon="-0.70575">
        <ele>20</ele>
        <time>2016-09-04T10:46:58Z</time>
      </trkpt>
      <trkpt lat="45.39432" lon="-0.70556">
        <ele>20</ele>
        <time>2016-09-04T10:48:58Z</time>
      </trkpt>
      <trkpt lat="45.3944" lon="-0.70536">
        <ele>21</ele>
        <time>2016-09-04T10:50:58Z</time>
      </trkpt>
      <trkpt lat="45.39459" lon="-0.70483">
        <ele>22</ele>
        <time>2016-09-04T10:52:58Z</time>
      </trkpt>
      <trkpt lat="45.39471" lon="-0.70456">
        <ele>22</ele>
        <time>2016-09-04T10:54:58Z</time>
      </trkpt>
      <trkpt lat="45.39486" lon="-0.70427">
        <ele>23</ele>
        <time>2016-09-04T10:56:58Z</time>
      </trkpt>
      <trkpt lat="45.39494" lon="-0.70408">
        <ele>23</ele>
        <time>2016-09-04T10:58:58Z</time>
      </trkpt>
      <trkpt lat="45.39507" lon="-0.70382">
        <ele>23</ele>
        <time>2016-09-04T11:00:58Z</time>
      </trkpt>
      <trkpt lat="45.39508" lon="-0.70379">
        <ele>23</ele>
        <time>2016-09-04T11:02:58Z</time>
      </trkpt>
      <trkpt lat="45.39522" lon="-0.7035">
        <ele>24</ele>
        <time>2016-09-04T11:04:58Z</time>
      </trkpt>
      <trkpt lat="45.39527" lon="-0.70341">
        <ele>23</ele>
        <time>2016-09-04T11:06:58Z</time>
      </trkpt>
      <trkpt lat="45.39545" lon="-0.70311">
        <ele>22</ele>
        <time>2016-09-04T11:08:58Z</time>
      </trkpt>
      <trkpt lat="45.39559" lon="-0.7029">
        <ele>21</ele>
        <time>2016-09-04T11:10:58Z</time>
      </trkpt>
      <trkpt lat="45.39575" lon="-0.70265">
        <ele>20</ele>
        <time>2016-09-04T11:12:58Z</time>
      </trkpt>
      <trkpt lat="45.39592" lon="-0.70239">
        <ele>18</ele>
        <time>2016-09-04T11:14:58Z</time>
      </trkpt>
      <trkpt lat="45.39597" lon="-0.70233">
        <ele>18</ele>
        <time>2016-09-04T11:16:58Z</time>
      </trkpt>
      <trkpt lat="45.39619" lon="-0.70212">
        <ele>17</ele>
        <time>2016-09-04T11:18:58Z</time>
      </trkpt>
      <trkpt lat="45.39641" lon="-0.70193">
        <ele>15</ele>
        <time>2016-09-04T11:20:58Z</time>
      </trkpt>
      <trkpt lat="45.39663" lon="-0.70172">
        <ele>14</ele>
        <time>2016-09-04T11:22:58Z</time>
      </trkpt>
      <trkpt lat="45.39681" lon="-0.70143">
        <ele>14</ele>
        <time>2016-09-04T11:24:58Z</time>
      </trkpt>
      <trkpt lat="45.39694" lon="-0.70114">
        <ele>14</ele>
        <time>2016-09-04T11:26:58Z</time>
      </trkpt>
      <trkpt lat="45.3971" lon="-0.70083">
        <ele>13</ele>
        <time>2016-09-04T11:28:58Z</time>
      </trkpt>
      <trkpt lat="45.39709" lon="-0.70083">
        <ele>13</ele>
        <time>2016-09-04T11:30:58Z</time>
      </trkpt>
      <trkpt lat="45.39711" lon="-0.70081">
        <ele>13</ele>
        <time>2016-09-04T11:32:58Z</time>
      </trkpt>
      <trkpt lat="45.39714" lon="-0.70077">
        <ele>13</ele>
        <time>2016-09-04T11:34:58Z</time>
      </trkpt>
      <trkpt lat="45.39741" lon="-0.70058">
        <ele>12</ele>
        <time>2016-09-04T11:36:58Z</time>
      </trkpt>
      <trkpt lat="45.39769" lon="-0.70042">
        <ele>11</ele>
        <time>2016-09-04T11:38:58Z</time>
      </trkpt>
      <trkpt lat="45.39823" lon="-0.7001">
        <ele>9</ele>
        <time>2016-09-04T11:40:58Z</time>
      </trkpt>
      <trkpt lat="45.39847" lon="-0.69995">
        <ele>9</ele>
        <time>2016-09-04T11:42:58Z</time>
      </trkpt>
      <trkpt lat="45.39863" lon="-0.69973">
        <ele>8</ele>
        <time>2016-09-04T11:44:58Z</time>
      </trkpt>
      <trkpt lat="45.39857" lon="-0.69944">
        <ele>8</ele>
        <time>2016-09-04T11:46:58Z</time>
      </trkpt>
      <trkpt lat="45.39852" lon="-0.69914">
        <ele>8</ele>
        <time>2016-09-04T11:48:58Z</time>
      </trkpt>
      <trkpt lat="45.39844" lon="-0.69884">
        <ele>8</ele>
        <time>2016-09-04T11:50:58Z</time>
      </trkpt>
      <trkpt lat="45.39841" lon="-0.69847">
        <ele>7</ele>
        <time>2016-09-04T11:52:58Z</time>
      </trkpt>
      <trkpt lat="45.39846" lon="-0.69815">
        <ele>7</ele>
        <time>2016-09-04T11:54:58Z</time>
      </trkpt>
      <trkpt lat="45.39856" lon="-0.6978">
        <ele>7</ele>
        <time>2016-09-04T11:56:58Z</time>
      </trkpt>
      <trkpt lat="45.3986" lon="-0.69743">
        <ele>8</ele>
        <time>2016-09-04T11:58:58Z</time>
      </trkpt>
      <trkpt lat="45.39863" lon="-0.69708">
        <ele>8</ele>
        <time>2016-09-04T12:00:58Z</time>
      </trkpt>
      <trkpt lat="45.3987" lon="-0.69638">
        <ele>10</ele>
        <time>2016-09-04T12:02:58Z</time>
      </trkpt>
      <trkpt lat="45.39872" lon="-0.69602">
        <ele>11</ele>
        <time>2016-09-04T12:04:58Z</time>
      </trkpt>
      <trkpt lat="45.3987" lon="-0.6958">
        <ele>12</ele>
        <time>2016-09-04T12:06:58Z</time>
      </trkpt>
      <trkpt lat="45.39873" lon="-0.69555">
        <ele>11</ele>
        <time>2016-09-04T12:08:58Z</time>
      </trkpt>
      <trkpt lat="45.39877" lon="-0.69525">
        <ele>11</ele>
        <time>2016-09-04T12:10:58Z</time>
      </trkpt>
      <trkpt lat="45.39878" lon="-0.69521">
        <ele>10</ele>
        <time>2016-09-04T12:12:58Z</time>
      </trkpt>
      <trkpt lat="45.39882" lon="-0.69488">
        <ele>10</ele>
        <time>2016-09-04T12:14:58Z</time>
      </trkpt>
      <trkpt lat="45.39886" lon="-0.69451">
        <ele>10</ele>
        <time>2016-09-04T12:16:58Z</time>
      </trkpt>
      <trkpt lat="45.39886" lon="-0.6942">
        <ele>11</ele>
        <time>2016-09-04T12:18:58Z</time>
      </trkpt>
      <trkpt lat="45.39883" lon="-0.69381">
        <ele>11</ele>
        <time>2016-09-04T12:20:58Z</time>
      </trkpt>
      <trkpt lat="45.39878" lon="-0.69343">
        <ele>12</ele>
        <time>2016-09-04T12:22:58Z</time>
      </trkpt>
      <trkpt lat="45.39874" lon="-0.69306">
        <ele>12</ele>
        <time>2016-09-04T12:24:58Z</time>
      </trkpt>
      <trkpt lat="45.39871" lon="-0.69273">
        <ele>13</ele>
        <time>2016-09-04T12:26:58Z</time>
      </trkpt>
      <trkpt lat="45.39867" lon="-0.69242">
        <ele>13</ele>
        <time>2016-09-04T12:28:58Z</time>
      </trkpt>
      <trkpt lat="45.39868" lon="-0.69239">
        <ele>13</ele>
        <time>2016-09-04T12:30:58Z</time>
      </trkpt>
      <trkpt lat="45.39868" lon="-0.69239">
        <ele>13</ele>
        <time>2016-09-04T12:32:58Z</time>
      </trkpt>
      <trkpt lat="45.39869" lon="-0.69233">
        <ele>13</ele>
        <time>2016-09-04T12:34:58Z</time>
      </trkpt>
      <trkpt lat="45.39871" lon="-0.69229">
        <ele>13</ele>
        <time>2016-09-04T12:36:58Z</time>
      </trkpt>
      <trkpt lat="45.39871" lon="-0.6923">
        <ele>13</ele>
        <time>2016-09-04T12:38:58Z</time>
      </trkpt>
      <trkpt lat="45.39871" lon="-0.69226">
        <ele>13</ele>
        <time>2016-09-04T12:40:58Z</time>
      </trkpt>
      <trkpt lat="45.3987" lon="-0.69225">
        <ele>13</ele>
        <time>2016-09-04T12:42:58Z</time>
      </trkpt>
      <trkpt lat="45.39872" lon="-0.69217">
        <ele>13</ele>
        <time>2016-09-04T12:44:58Z</time>
      </trkpt>
      <trkpt lat="45.39877" lon="-0.69185">
        <ele>13</ele>
        <time>2016-09-04T12:46:58Z</time>
      </trkpt>
      <trkpt lat="45.3988" lon="-0.69153">
        <ele>13</ele>
        <time>2016-09-04T12:48:58Z</time>
      </trkpt>
      <trkpt lat="45.39882" lon="-0.69119">
        <ele>12</ele>
        <time>2016-09-04T12:50:58Z</time>
      </trkpt>
      <trkpt lat="45.39885" lon="-0.69085">
        <ele>12</ele>
        <time>2016-09-04T12:52:58Z</time>
      </trkpt>
      <trkpt lat="45.39886" lon="-0.69069">
        <ele>12</ele>
        <time>2016-09-04T12:54:58Z</time>
      </trkpt>
      <trkpt lat="45.39893" lon="-0.69009">
        <ele>11</ele>
        <time>2016-09-04T12:56:58Z</time>
      </trkpt>
      <trkpt lat="45.39893" lon="-0.68981">
        <ele>12</ele>
        <time>2016-09-04T12:58:58Z</time>
      </trkpt>
      <trkpt lat="45.3989" lon="-0.6894">
        <ele>12</ele>
        <time>2016-09-04T13:00:58Z</time>
      </trkpt>
      <trkpt lat="45.39889" lon="-0.68928">
        <ele>12</ele>
        <time>2016-09-04T13:02:58Z</time>
      </trkpt>
      <trkpt lat="45.39878" lon="-0.68892">
        <ele>12</ele>
        <time>2016-09-04T13:04:58Z</time>
      </trkpt>
      <trkpt lat="45.39871" lon="-0.68879">
        <ele>12</ele>
        <time>2016-09-04T13:06:58Z</time>
      </trkpt>
      <trkpt lat="45.39852" lon="-0.68861">
        <ele>12</ele>
        <time>2016-09-04T13:08:58Z</time>
      </trkpt>
      <trkpt lat="45.39833" lon="-0.68851">
        <ele>12</ele>
        <time>2016-09-04T13:10:58Z</time>
      </trkpt>
      <trkpt lat="45.39816" lon="-0.68848">
        <ele>12</ele>
        <time>2016-09-04T13:12:58Z</time>
      </trkpt>
      <trkpt lat="45.39794" lon="-0.6884">
        <ele>13</ele>
        <time>2016-09-04T13:14:58Z</time>
      </trkpt>
      <trkpt lat="45.39791" lon="-0.68837">
        <ele>13</ele>
        <time>2016-09-04T13:16:58Z</time>
      </trkpt>
      <trkpt lat="45.3978" lon="-0.68821">
        <ele>13</ele>
        <time>2016-09-04T13:18:58Z</time>
      </trkpt>
      <trkpt lat="45.3977" lon="-0.68809">
        <ele>13</ele>
        <time>2016-09-04T13:20:58Z</time>
      </trkpt>
      <trkpt lat="45.39768" lon="-0.68793">
        <ele>13</ele>
        <time>2016-09-04T13:22:58Z</time>
      </trkpt>
      <trkpt lat="45.39777" lon="-0.68772">
        <ele>13</ele>
        <time>2016-09-04T13:24:58Z</time>
      </trkpt>
      <trkpt lat="45.39782" lon="-0.68753">
        <ele>14</ele>
        <time>2016-09-04T13:26:58Z</time>
      </trkpt>
      <trkpt lat="45.39782" lon="-0.68753">
        <ele>14</ele>
        <time>2016-09-04T13:28:58Z</time>
      </trkpt>
      <trkpt lat="45.39774" lon="-0.68741">
        <ele>14</ele>
        <time>2016-09-04T13:30:58Z</time>
      </trkpt>
      <trkpt lat="45.39762" lon="-0.68726">
        <ele>14</ele>
        <time>2016-09-04T13:32:58Z</time>
      </trkpt>
      <trkpt lat="45.39753" lon="-0.68707">
        <ele>14</ele>
        <time>2016-09-04T13:34:58Z</time>
      </trkpt>
      <trkpt lat="45.39737" lon="-0.6868">
        <ele>15</ele>
        <time>2016-09-04T13:36:58Z</time>
      </trkpt>
      <trkpt lat="45.39722" lon="-0.68657">
        <ele>16</ele>
        <time>2016-09-04T13:38:58Z</time>
      </trkpt>
      <trkpt lat="45.39716" lon="-0.6865">
        <ele>16</ele>
        <time>2016-09-04T13:40:58Z</time>
      </trkpt>
      <trkpt lat="45.39694" lon="-0.68648">
        <ele>17</ele>
        <time>2016-09-04T13:42:58Z</time>
      </trkpt>
      <trkpt lat="45.39688" lon="-0.68649">
        <ele>17</ele>
        <time>2016-09-04T13:44:58Z</time>
      </trkpt>
      <trkpt lat="45.39661" lon="-0.68645">
        <ele>18</ele>
        <time>2016-09-04T13:46:58Z</time>
      </trkpt>
      <trkpt lat="45.39638" lon="-0.68637">
        <ele>19</ele>
        <time>2016-09-04T13:48:58Z</time>
      </trkpt>
      <trkpt lat="45.39625" lon="-0.68628">
        <ele>20</ele>
        <time>2016-09-04T13:50:58Z</time>
      </trkpt>
      <trkpt lat="45.39606" lon="-0.68621">
        <ele>21</ele>
        <time>2016-09-04T13:52:58Z</time>
      </trkpt>
      <trkpt lat="45.39594" lon="-0.68613">
        <ele>21</ele>
        <time>2016-09-04T13:54:58Z</time>
      </trkpt>
      <trkpt lat="45.3959" lon="-0.68602">
        <ele>21</ele>
        <time>2016-09-04T13:56:58Z</time>
      </trkpt>
      <trkpt lat="45.39576" lon="-0.68582">
        <ele>21</ele>
        <time>2016-09-04T13:58:58Z</time>
      </trkpt>
      <trkpt lat="45.3957" lon="-0.68574">
        <ele>21</ele>
        <time>2016-09-04T14:00:58Z</time>
      </trkpt>
      <trkpt lat="45.39554" lon="-0.68556">
        <ele>22</ele>
        <time>2016-09-04T14:02:58Z</time>
      </trkpt>
      <trkpt lat="45.39551" lon="-0.68545">
        <ele>21</ele>
        <time>2016-09-04T14:04:58Z</time>
      </trkpt>
      <trkpt lat="45.39547" lon="-0.68526">
        <ele>21</ele>
        <time>2016-09-04T14:06:58Z</time>
      </trkpt>
      <trkpt lat="45.39536" lon="-0.68501">
        <ele>20</ele>
        <time>2016-09-04T14:08:58Z</time>
      </trkpt>
      <trkpt lat="45.39528" lon="-0.68476">
        <ele>20</ele>
        <time>2016-09-04T14:10:58Z</time>
      </trkpt>
      <trkpt lat="45.39524" lon="-0.6845">
        <ele>20</ele>
        <time>2016-09-04T14:12:58Z</time>
      </trkpt>
      <trkpt lat="45.39525" lon="-0.68429">
        <ele>21</ele>
        <time>2016-09-04T14:14:58Z</time>
      </trkpt>
      <trkpt lat="45.39525" lon="-0.684">
        <ele>21</ele>
        <time>2016-09-04T14:16:58Z</time>
      </trkpt>
      <trkpt lat="45.3952" lon="-0.68375">
        <ele>21</ele>
        <time>2016-09-04T14:18:58Z</time>
      </trkpt>
      <trkpt lat="45.39513" lon="-0.68355">
        <ele>22</ele>
        <time>2016-09-04T14:20:58Z</time>
      </trkpt>
      <trkpt lat="45.39505" lon="-0.68324">
        <ele>21</ele>
        <time>2016-09-04T14:22:58Z</time>
      </trkpt>
      <trkpt lat="45.39499" lon="-0.68309">
        <ele>21</ele>
        <time>2016-09-04T14:24:58Z</time>
      </trkpt>
      <trkpt lat="45.39494" lon="-0.6829">
        <ele>21</ele>
        <time>2016-09-04T14:26:58Z</time>
      </trkpt>
      <trkpt lat="45.39487" lon="-0.68272">
        <ele>21</ele>
        <time>2016-09-04T14:28:58Z</time>
      </trkpt>
      <trkpt lat="45.3948" lon="-0.68249">
        <ele>22</ele>
        <time>2016-09-04T14:30:58Z</time>
      </trkpt>
      <trkpt lat="45.39473" lon="-0.68227">
        <ele>23</ele>
        <time>2016-09-04T14:32:58Z</time>
      </trkpt>
      <trkpt lat="45.39468" lon="-0.68212">
        <ele>23</ele>
        <time>2016-09-04T14:34:58Z</time>
      </trkpt>
      <trkpt lat="45.39459" lon="-0.68191">
        <ele>24</ele>
        <time>2016-09-04T14:36:58Z</time>
      </trkpt>
      <trkpt lat="45.39458" lon="-0.68185">
        <ele>24</ele>
        <time>2016-09-04T14:38:58Z</time>
      </trkpt>
      <trkpt lat="45.39454" lon="-0.68185">
        <ele>24</ele>
        <time>2016-09-04T14:40:58Z</time>
      </trkpt>
      <trkpt lat="45.39453" lon="-0.68187">
        <ele>24</ele>
        <time>2016-09-04T14:42:58Z</time>
      </trkpt>
      <trkpt lat="45.39444" lon="-0.68211">
        <ele>25</ele>
        <time>2016-09-04T14:44:58Z</time>
      </trkpt>
      <trkpt lat="45.39436" lon="-0.68225">
        <ele>25</ele>
        <time>2016-09-04T14:46:58Z</time>
      </trkpt>
      <trkpt lat="45.39428" lon="-0.68229">
        <ele>26</ele>
        <time>2016-09-04T14:48:58Z</time>
      </trkpt>
      <trkpt lat="45.39418" lon="-0.68232">
        <ele>27</ele>
        <time>2016-09-04T14:50:58Z</time>
      </trkpt>
      <trkpt lat="45.39411" lon="-0.68234">
        <ele>27</ele>
        <time>2016-09-04T14:52:58Z</time>
      </trkpt>
      <trkpt lat="45.39398" lon="-0.68234">
        <ele>28</ele>
        <time>2016-09-04T14:54:58Z</time>
      </trkpt>
      <trkpt lat="45.39374" lon="-0.68232">
        <ele>30</ele>
        <time>2016-09-04T14:56:58Z</time>
      </trkpt>
      <trkpt lat="45.39363" lon="-0.68233">
        <ele>31</ele>
        <time>2016-09-04T14:58:58Z</time>
      </trkpt>
      <trkpt lat="45.39355" lon="-0.68235">
        <ele>32</ele>
        <time>2016-09-04T15:00:58Z</time>
      </trkpt>
      <trkpt lat="45.39336" lon="-0.68235">
        <ele>33</ele>
        <time>2016-09-04T15:02:58Z</time>
      </trkpt>
      <trkpt lat="45.39314" lon="-0.68234">
        <ele>35</ele>
        <time>2016-09-04T15:04:58Z</time>
      </trkpt>
      <trkpt lat="45.39298" lon="-0.68233">
        <ele>36</ele>
        <time>2016-09-04T15:06:58Z</time>
      </trkpt>
      <trkpt lat="45.39276" lon="-0.68229">
        <ele>37</ele>
        <time>2016-09-04T15:08:58Z</time>
      </trkpt>
      <trkpt lat="45.39258" lon="-0.68227">
        <ele>38</ele>
        <time>2016-09-04T15:10:58Z</time>
      </trkpt>
      <trkpt lat="45.39212" lon="-0.68217">
        <ele>42</ele>
        <time>2016-09-04T15:12:58Z</time>
      </trkpt>
      <trkpt lat="45.39196" lon="-0.68215">
        <ele>43</ele>
        <time>2016-09-04T15:14:58Z</time>
      </trkpt>
      <trkpt lat="45.39175" lon="-0.68215">
        <ele>44</ele>
        <time>2016-09-04T15:16:58Z</time>
      </trkpt>
      <trkpt lat="45.39156" lon="-0.68222">
        <ele>46</ele>
        <time>2016-09-04T15:18:58Z</time>
      </trkpt>
      <trkpt lat="45.39152" lon="-0.68224">
        <ele>46</ele>
        <time>2016-09-04T15:20:58Z</time>
      </trkpt>
      <trkpt lat="45.39136" lon="-0.68238">
        <ele>48</ele>
        <time>2016-09-04T15:22:58Z</time>
      </trkpt>
      <trkpt lat="45.39123" lon="-0.68252">
        <ele>49</ele>
        <time>2016-09-04T15:24:58Z</time>
      </trkpt>
      <trkpt lat="45.39097" lon="-0.68285">
        <ele>50</ele>
        <time>2016-09-04T15:26:58Z</time>
      </trkpt>
      <trkpt lat="45.39074" lon="-0.68312">
        <ele>52</ele>
        <time>2016-09-04T15:28:58Z</time>
      </trkpt>
      <trkpt lat="45.39063" lon="-0.68326">
        <ele>54</ele>
        <time>2016-09-04T15:30:58Z</time>
      </trkpt>
      <trkpt lat="45.39053" lon="-0.68339">
        <ele>55</ele>
        <time>2016-09-04T15:32:58Z</time>
      </trkpt>
      <trkpt lat="45.39046" lon="-0.68352">
        <ele>56</ele>
        <time>2016-09-04T15:34:58Z</time>
      </trkpt>
      <trkpt lat="45.39035" lon="-0.6836">
        <ele>57</ele>
        <time>2016-09-04T15:36:58Z</time>
      </trkpt>
      <trkpt lat="45.39033" lon="-0.68364">
        <ele>57</ele>
        <time>2016-09-04T15:38:58Z</time>
      </trkpt>
      <trkpt lat="45.3903" lon="-0.68372">
        <ele>58</ele>
        <time>2016-09-04T15:40:58Z</time>
      </trkpt>
      <trkpt lat="45.39022" lon="-0.68388">
        <ele>58</ele>
        <time>2016-09-04T15:42:58Z</time>
      </trkpt>
      <trkpt lat="45.39005" lon="-0.68423">
        <ele>61</ele>
        <time>2016-09-04T15:44:58Z</time>
      </trkpt>
      <trkpt lat="45.38997" lon="-0.6844">
        <ele>61</ele>
        <time>2016-09-04T15:46:58Z</time>
      </trkpt>
      <trkpt lat="45.38987" lon="-0.68454">
        <ele>63</ele>
        <time>2016-09-04T15:48:58Z</time>
      </trkpt>
      <trkpt lat="45.38974" lon="-0.68472">
        <ele>64</ele>
        <time>2016-09-04T15:50:58Z</time>
      </trkpt>
      <trkpt lat="45.38965" lon="-0.68483">
        <ele>65</ele>
        <time>2016-09-04T15:52:58Z</time>
      </trkpt>
      <trkpt lat="45.38954" lon="-0.68496">
        <ele>66</ele>
        <time>2016-09-04T15:54:58Z</time>
      </trkpt>
      <trkpt lat="45.38932" lon="-0.68516">
        <ele>70</ele>
        <time>2016-09-04T15:56:58Z</time>
      </trkpt>
      <trkpt lat="45.38918" lon="-0.68531">
        <ele>71</ele>
        <time>2016-09-04T15:58:58Z</time>
      </trkpt>
      <trkpt lat="45.38903" lon="-0.68543">
        <ele>72</ele>
        <time>2016-09-04T16:00:58Z</time>
      </trkpt>
      <trkpt lat="45.38899" lon="-0.68548">
        <ele>72</ele>
        <time>2016-09-04T16:02:58Z</time>
      </trkpt>
      <trkpt lat="45.38896" lon="-0.6856">
        <ele>71</ele>
        <time>2016-09-04T16:04:58Z</time>
      </trkpt>
      <trkpt lat="45.38892" lon="-0.68586">
        <ele>70</ele>
        <time>2016-09-04T16:06:58Z</time>
      </trkpt>
      <trkpt lat="45.38891" lon="-0.6859">
        <ele>71</ele>
        <time>2016-09-04T16:08:58Z</time>
      </trkpt>
      <trkpt lat="45.38889" lon="-0.68608">
        <ele>71</ele>
        <time>2016-09-04T16:10:58Z</time>
      </trkpt>
      <trkpt lat="45.38888" lon="-0.68622">
        <ele>71</ele>
        <time>2016-09-04T16:12:58Z</time>
      </trkpt>
      <trkpt lat="45.38887" lon="-0.68642">
        <ele>71</ele>
        <time>2016-09-04T16:14:58Z</time>
      </trkpt>
      <trkpt lat="45.38888" lon="-0.68643">
        <ele>71</ele>
        <time>2016-09-04T16:16:58Z</time>
      </trkpt>
      <trkpt lat="45.38888" lon="-0.68649">
        <ele>71</ele>
        <time>2016-09-04T16:18:58Z</time>
      </trkpt>
      <trkpt lat="45.38886" lon="-0.68668">
        <ele>71</ele>
        <time>2016-09-04T16:20:58Z</time>
      </trkpt>
      <trkpt lat="45.38886" lon="-0.68679">
        <ele>71</ele>
        <time>2016-09-04T16:22:58Z</time>
      </trkpt>
      <trkpt lat="45.38885" lon="-0.68695">
        <ele>71</ele>
        <time>2016-09-04T16:24:58Z</time>
      </trkpt>
      <trkpt lat="45.38883" lon="-0.68711">
        <ele>71</ele>
        <time>2016-09-04T16:26:58Z</time>
      </trkpt>
      <trkpt lat="45.38883" lon="-0.6872">
        <ele>71</ele>
        <time>2016-09-04T16:28:58Z</time>
      </trkpt>
      <trkpt lat="45.38888" lon="-0.6873">
        <ele>71</ele>
        <time>2016-09-04T16:30:58Z</time>
      </trkpt>
    </trkseg>
  </trk>
</gpx>